Les Abymes, Guadeloupe

10:00 PM AST on June 28, 2017 (GMT -0400)
Le Raizet | | Change Station

Elev 26 ft 16.27 °N, 61.52 °W | Updated 30 minutes ago

Rain
Rain
81 °F
Feels Like 87 °F
N
5
Wind Variable Wind from East

Today
High -- | Low -- °F
--% Chance of Precip.
Yesterday
High -- | Low -- °F
Precip. -- in
Pressure 29.98 in
Visibility 6.2 miles
Clouds Few 1900 ft
Scattered Clouds 2700 ft
Mostly Cloudy 3900 ft
Heat Index 87 °F
Dew Point 77 °F
Humidity 89%
Rainfall 0.00 in
Snow Depth Not available.
5:36 AM 6:42 PM
Waxing Crescent, 30% visible
METAR TFFR 290130Z AUTO 10004KT 070V130 9999 RA FEW019 SCT027 BKN039 27/25 Q1015 TEMPO 3000 SHRA SCT018TCU
Pressure 29.98 in
Visibility 6.2 miles
Clouds Few 1900 ft
Scattered Clouds 2700 ft
Mostly Cloudy 3900 ft
Heat Index 87 °F
Dew Point 77 °F
Humidity 89%
Rainfall 0.00 in
Snow Depth Not available.
5:36 AM 6:42 PM
Waxing Crescent, 30% visible
METAR TFFR 290130Z AUTO 10004KT 070V130 9999 RA FEW019 SCT027 BKN039 27/25 Q1015 TEMPO 3000 SHRA SCT018TCU

Get Severe Weather Alerts

Thanks for signing up!

Be on the lookout for a verification email in your inbox.

You'll start receiving the daily forecast at 6 AM.

×

10-Day Weather Forecast

No radar image for this location.
×

Almanac

Astronomy

Jun. 28, 2017 Rise Set
Actual Time
Civil Twilight
Nautical Twilight
Astronomical Twilight
Moon
Length of Visible Light
Length of Day
Tomorrow will be .
, % of the Moon is Illuminated

Today's Extremes

Country Highs Country Lows

Community

WunderPhotos

Category 6

Welcome to Category 6. This is the collective home for Weather Underground's featured writeups by Dr. Jeff Masters (right), Bob Henson (left), Chris Burt, and other regular contributors.

Nearby

Air Quality

  Air Quality AQ Index Pollutant
Not available.

Snow Depth

Station Depth Elevation

Earthquake Activity

City Distance Mag. Time & Date
Minimum magnitude displayed is 2.5.

Coastal Water Temperatures

Place Temperature

Stations

Nearby Weather Stations

Station Location Temp. Windchill Dew Point Humidity Wind Precip. Elev Updated Type